sensor_id;sensor_type;location;lat;lon;timestamp;P1;durP1;ratioP1;P2;durP2;ratioP2
3465;SDS011;1747;48.884;9.160;2023-06-22T00:00:51;12.48;;;7.35;;
3465;SDS011;1747;48.884;9.160;2023-06-22T00:03:19;11.38;;;7.43;;
3465;SDS011;1747;48.884;9.160;2023-06-22T00:05:48;12.77;;;6.85;;
3465;SDS011;1747;48.884;9.160;2023-06-22T00:08:15;10.40;;;7.78;;
3465;SDS011;1747;48.884;9.160;2023-06-22T00:10:43;11.15;;;7.65;;
3465;SDS011;1747;48.884;9.160;2023-06-22T00:13:10;11.70;;;7.80;;
3465;SDS011;1747;48.884;9.160;2023-06-22T00:15:39;14.70;;;7.47;;
3465;SDS011;1747;48.884;9.160;2023-06-22T00:18:08;9.57;;;7.32;;
3465;SDS011;1747;48.884;9.160;2023-06-22T00:20:35;11.23;;;7.30;;
3465;SDS011;1747;48.884;9.160;2023-06-22T00:23:03;11.00;;;7.57;;
3465;SDS011;1747;48.884;9.160;2023-06-22T00:25:33;8.93;;;6.55;;
3465;SDS011;1747;48.884;9.160;2023-06-22T00:28:00;13.15;;;6.72;;
3465;SDS011;1747;48.884;9.160;2023-06-22T00:30:27;13.07;;;7.80;;
3465;SDS011;1747;48.884;9.160;2023-06-22T00:32:55;10.63;;;7.05;;
3465;SDS011;1747;48.884;9.160;2023-06-22T00:35:22;9.43;;;7.00;;
3465;SDS011;1747;48.884;9.160;2023-06-22T00:37:54;10.55;;;6.55;;
3465;SDS011;1747;48.884;9.160;2023-06-22T00:40:25;13.38;;;7.63;;
3465;SDS011;1747;48.884;9.160;2023-06-22T00:42:53;10.40;;;7.43;;
3465;SDS011;1747;48.884;9.160;2023-06-22T00:45:20;9.02;;;7.63;;
3465;SDS011;1747;48.884;9.160;2023-06-22T00:47:48;10.82;;;7.35;;
3465;SDS011;1747;48.884;9.160;2023-06-22T00:50:17;9.48;;;7.97;;
3465;SDS011;1747;48.884;9.160;2023-06-22T00:52:46;10.13;;;7.18;;
3465;SDS011;1747;48.884;9.160;2023-06-22T00:55:17;15.02;;;8.05;;
3465;SDS011;1747;48.884;9.160;2023-06-22T00:57:45;9.27;;;7.70;;
3465;SDS011;1747;48.884;9.160;2023-06-22T01:00:12;11.80;;;7.55;;
3465;SDS011;1747;48.884;9.160;2023-06-22T01:02:44;13.18;;;8.13;;
3465;SDS011;1747;48.884;9.160;2023-06-22T01:05:12;10.70;;;7.40;;
3465;SDS011;1747;48.884;9.160;2023-06-22T01:07:41;13.45;;;7.63;;
3465;SDS011;1747;48.884;9.160;2023-06-22T01:10:16;12.77;;;8.00;;
3465;SDS011;1747;48.884;9.160;2023-06-22T01:12:48;12.35;;;8.00;;
3465;SDS011;1747;48.884;9.160;2023-06-22T01:15:18;9.38;;;7.45;;
3465;SDS011;1747;48.884;9.160;2023-06-22T01:17:49;12.18;;;8.73;;
3465;SDS011;1747;48.884;9.160;2023-06-22T01:20:18;10.45;;;8.00;;
3465;SDS011;1747;48.884;9.160;2023-06-22T01:22:51;10.23;;;7.63;;
3465;SDS011;1747;48.884;9.160;2023-06-22T01:25:28;13.45;;;7.75;;
3465;SDS011;1747;48.884;9.160;2023-06-22T01:28:02;10.10;;;8.23;;
3465;SDS011;1747;48.884;9.160;2023-06-22T01:30:41;10.30;;;7.70;;
3465;SDS011;1747;48.884;9.160;2023-06-22T01:33:09;13.80;;;7.82;;
3465;SDS011;1747;48.884;9.160;2023-06-22T01:35:38;13.73;;;7.80;;
3465;SDS011;1747;48.884;9.160;2023-06-22T01:38:06;12.35;;;7.40;;
3465;SDS011;1747;48.884;9.160;2023-06-22T01:40:34;11.63;;;7.38;;
3465;SDS011;1747;48.884;9.160;2023-06-22T01:43:02;10.43;;;7.28;;
3465;SDS011;1747;48.884;9.160;2023-06-22T01:45:30;10.40;;;7.50;;
3465;SDS011;1747;48.884;9.160;2023-06-22T01:47:58;12.40;;;8.38;;
3465;SDS011;1747;48.884;9.160;2023-06-22T01:50:26;12.45;;;7.75;;
3465;SDS011;1747;48.884;9.160;2023-06-22T01:52:53;11.90;;;7.50;;
3465;SDS011;1747;48.884;9.160;2023-06-22T01:55:19;11.05;;;7.00;;
3465;SDS011;1747;48.884;9.160;2023-06-22T01:57:46;10.30;;;7.43;;
3465;SDS011;1747;48.884;9.160;2023-06-22T02:00:14;17.00;;;7.30;;
3465;SDS011;1747;48.884;9.160;2023-06-22T02:02:46;12.27;;;6.82;;
3465;SDS011;1747;48.884;9.160;2023-06-22T02:05:20;10.65;;;6.88;;
3465;SDS011;1747;48.884;9.160;2023-06-22T02:07:49;10.23;;;6.80;;
3465;SDS011;1747;48.884;9.160;2023-06-22T02:10:22;10.52;;;7.20;;
3465;SDS011;1747;48.884;9.160;2023-06-22T02:12:51;14.55;;;7.50;;
3465;SDS011;1747;48.884;9.160;2023-06-22T02:15:20;12.45;;;6.97;;
3465;SDS011;1747;48.884;9.160;2023-06-22T02:17:47;9.27;;;6.72;;
3465;SDS011;1747;48.884;9.160;2023-06-22T02:20:14;10.20;;;6.80;;
3465;SDS011;1747;48.884;9.160;2023-06-22T02:22:42;9.10;;;6.50;;
3465;SDS011;1747;48.884;9.160;2023-06-22T02:25:09;14.55;;;6.95;;
3465;SDS011;1747;48.884;9.160;2023-06-22T02:27:36;9.23;;;6.88;;
3465;SDS011;1747;48.884;9.160;2023-06-22T02:30:06;9.02;;;7.05;;
3465;SDS011;1747;48.884;9.160;2023-06-22T02:32:33;10.57;;;6.85;;
3465;SDS011;1747;48.884;9.160;2023-06-22T02:35:00;8.68;;;6.25;;
3465;SDS011;1747;48.884;9.160;2023-06-22T02:37:29;11.95;;;6.93;;
3465;SDS011;1747;48.884;9.160;2023-06-22T02:39:57;8.85;;;7.32;;
3465;SDS011;1747;48.884;9.160;2023-06-22T02:42:24;10.02;;;6.93;;
3465;SDS011;1747;48.884;9.160;2023-06-22T02:44:51;12.63;;;7.20;;
3465;SDS011;1747;48.884;9.160;2023-06-22T02:47:17;8.48;;;7.20;;
3465;SDS011;1747;48.884;9.160;2023-06-22T02:49:44;10.05;;;6.50;;
3465;SDS011;1747;48.884;9.160;2023-06-22T02:52:11;10.75;;;7.18;;
3465;SDS011;1747;48.884;9.160;2023-06-22T02:54:38;10.50;;;6.65;;
3465;SDS011;1747;48.884;9.160;2023-06-22T02:57:07;8.15;;;5.97;;
3465;SDS011;1747;48.884;9.160;2023-06-22T02:59:38;10.63;;;6.55;;
3465;SDS011;1747;48.884;9.160;2023-06-22T03:02:05;9.88;;;6.85;;
3465;SDS011;1747;48.884;9.160;2023-06-22T03:04:32;9.05;;;6.40;;
3465;SDS011;1747;48.884;9.160;2023-06-22T03:07:00;10.30;;;7.07;;
3465;SDS011;1747;48.884;9.160;2023-06-22T03:09:27;11.35;;;6.95;;
3465;SDS011;1747;48.884;9.160;2023-06-22T03:11:54;8.52;;;6.57;;
3465;SDS011;1747;48.884;9.160;2023-06-22T03:14:22;9.15;;;5.53;;
3465;SDS011;1747;48.884;9.160;2023-06-22T03:16:49;9.20;;;6.20;;
3465;SDS011;1747;48.884;9.160;2023-06-22T03:19:15;10.18;;;6.32;;
3465;SDS011;1747;48.884;9.160;2023-06-22T03:21:42;9.77;;;6.35;;
3465;SDS011;1747;48.884;9.160;2023-06-22T03:24:09;10.48;;;6.97;;
3465;SDS011;1747;48.884;9.160;2023-06-22T03:26:36;9.00;;;6.30;;
3465;SDS011;1747;48.884;9.160;2023-06-22T03:29:03;10.10;;;6.70;;
3465;SDS011;1747;48.884;9.160;2023-06-22T03:31:31;12.70;;;6.78;;
3465;SDS011;1747;48.884;9.160;2023-06-22T03:33:58;16.58;;;6.80;;
3465;SDS011;1747;48.884;9.160;2023-06-22T03:36:24;12.27;;;6.80;;
3465;SDS011;1747;48.884;9.160;2023-06-22T03:38:51;13.43;;;6.25;;
3465;SDS011;1747;48.884;9.160;2023-06-22T03:41:18;16.48;;;6.57;;
3465;SDS011;1747;48.884;9.160;2023-06-22T03:43:45;11.32;;;7.20;;
3465;SDS011;1747;48.884;9.160;2023-06-22T03:46:12;11.52;;;6.53;;
3465;SDS011;1747;48.884;9.160;2023-06-22T03:48:40;12.20;;;7.72;;
3465;SDS011;1747;48.884;9.160;2023-06-22T03:51:07;10.57;;;7.25;;
3465;SDS011;1747;48.884;9.160;2023-06-22T03:53:33;12.13;;;7.68;;
3465;SDS011;1747;48.884;9.160;2023-06-22T03:56:00;12.13;;;8.10;;
3465;SDS011;1747;48.884;9.160;2023-06-22T03:58:27;10.73;;;8.38;;
3465;SDS011;1747;48.884;9.160;2023-06-22T04:00:58;12.77;;;7.97;;
3465;SDS011;1747;48.884;9.160;2023-06-22T04:03:25;10.13;;;7.82;;
3465;SDS011;1747;48.884;9.160;2023-06-22T04:05:53;14.35;;;8.23;;
3465;SDS011;1747;48.884;9.160;2023-06-22T04:08:20;11.32;;;7.25;;
3465;SDS011;1747;48.884;9.160;2023-06-22T04:10:47;13.55;;;7.70;;
3465;SDS011;1747;48.884;9.160;2023-06-22T04:13:14;11.57;;;8.13;;
3465;SDS011;1747;48.884;9.160;2023-06-22T04:15:41;13.65;;;8.70;;
3465;SDS011;1747;48.884;9.160;2023-06-22T04:18:08;11.15;;;7.40;;
3465;SDS011;1747;48.884;9.160;2023-06-22T04:20:35;12.27;;;7.60;;
3465;SDS011;1747;48.884;9.160;2023-06-22T04:23:03;13.45;;;7.63;;
3465;SDS011;1747;48.884;9.160;2023-06-22T04:25:29;12.40;;;7.47;;
3465;SDS011;1747;48.884;9.160;2023-06-22T04:27:56;12.27;;;7.72;;
3465;SDS011;1747;48.884;9.160;2023-06-22T04:30:23;15.00;;;8.20;;
3465;SDS011;1747;48.884;9.160;2023-06-22T04:32:50;10.32;;;8.13;;
3465;SDS011;1747;48.884;9.160;2023-06-22T04:35:22;12.98;;;8.70;;
3465;SDS011;1747;48.884;9.160;2023-06-22T04:37:49;10.32;;;8.10;;
3465;SDS011;1747;48.884;9.160;2023-06-22T04:40:21;16.52;;;7.82;;
3465;SDS011;1747;48.884;9.160;2023-06-22T04:42:48;12.30;;;7.38;;
3465;SDS011;1747;48.884;9.160;2023-06-22T04:45:18;12.32;;;7.43;;
3465;SDS011;1747;48.884;9.160;2023-06-22T04:47:46;11.35;;;8.25;;
3465;SDS011;1747;48.884;9.160;2023-06-22T04:50:12;10.77;;;7.32;;
3465;SDS011;1747;48.884;9.160;2023-06-22T04:52:39;12.80;;;8.18;;
3465;SDS011;1747;48.884;9.160;2023-06-22T04:55:06;15.68;;;8.35;;
3465;SDS011;1747;48.884;9.160;2023-06-22T04:57:35;11.15;;;7.70;;
3465;SDS011;1747;48.884;9.160;2023-06-22T05:00:05;16.92;;;8.80;;
3465;SDS011;1747;48.884;9.160;2023-06-22T05:02:42;12.38;;;8.20;;
3465;SDS011;1747;48.884;9.160;2023-06-22T05:05:10;13.00;;;8.05;;
3465;SDS011;1747;48.884;9.160;2023-06-22T05:07:38;11.25;;;8.23;;
3465;SDS011;1747;48.884;9.160;2023-06-22T05:10:08;13.48;;;8.65;;
3465;SDS011;1747;48.884;9.160;2023-06-22T05:12:37;11.50;;;7.45;;
3465;SDS011;1747;48.884;9.160;2023-06-22T05:15:04;11.85;;;8.35;;
3465;SDS011;1747;48.884;9.160;2023-06-22T05:17:32;15.63;;;8.77;;
3465;SDS011;1747;48.884;9.160;2023-06-22T05:19:59;11.32;;;8.48;;
3465;SDS011;1747;48.884;9.160;2023-06-22T05:22:25;11.00;;;8.13;;
3465;SDS011;1747;48.884;9.160;2023-06-22T05:24:52;13.20;;;8.68;;
3465;SDS011;1747;48.884;9.160;2023-06-22T05:27:19;11.55;;;7.57;;
3465;SDS011;1747;48.884;9.160;2023-06-22T05:29:47;11.93;;;8.93;;
3465;SDS011;1747;48.884;9.160;2023-06-22T05:32:14;13.40;;;7.78;;
3465;SDS011;1747;48.884;9.160;2023-06-22T05:34:41;14.07;;;8.10;;
3465;SDS011;1747;48.884;9.160;2023-06-22T05:37:08;11.55;;;8.55;;
3465;SDS011;1747;48.884;9.160;2023-06-22T05:39:35;11.80;;;8.15;;
3465;SDS011;1747;48.884;9.160;2023-06-22T05:42:03;16.85;;;8.25;;
3465;SDS011;1747;48.884;9.160;2023-06-22T05:44:31;12.63;;;8.18;;
3465;SDS011;1747;48.884;9.160;2023-06-22T05:46:59;11.13;;;7.97;;
3465;SDS011;1747;48.884;9.160;2023-06-22T05:49:26;13.50;;;8.60;;
3465;SDS011;1747;48.884;9.160;2023-06-22T05:51:57;9.82;;;7.43;;
3465;SDS011;1747;48.884;9.160;2023-06-22T05:54:24;9.35;;;7.45;;
3465;SDS011;1747;48.884;9.160;2023-06-22T05:56:51;11.90;;;8.15;;
3465;SDS011;1747;48.884;9.160;2023-06-22T05:59:19;10.82;;;8.23;;
3465;SDS011;1747;48.884;9.160;2023-06-22T06:01:46;11.02;;;7.72;;
3465;SDS011;1747;48.884;9.160;2023-06-22T06:04:16;13.70;;;8.50;;
3465;SDS011;1747;48.884;9.160;2023-06-22T06:06:43;11.30;;;7.93;;
3465;SDS011;1747;48.884;9.160;2023-06-22T06:09:11;13.50;;;8.13;;
3465;SDS011;1747;48.884;9.160;2023-06-22T06:11:38;12.38;;;7.90;;
3465;SDS011;1747;48.884;9.160;2023-06-22T06:14:05;12.98;;;8.23;;
3465;SDS011;1747;48.884;9.160;2023-06-22T06:16:32;14.70;;;7.70;;
3465;SDS011;1747;48.884;9.160;2023-06-22T06:18:59;10.27;;;7.43;;
3465;SDS011;1747;48.884;9.160;2023-06-22T06:21:27;12.45;;;8.00;;
3465;SDS011;1747;48.884;9.160;2023-06-22T06:23:54;13.02;;;7.35;;
3465;SDS011;1747;48.884;9.160;2023-06-22T06:26:21;10.30;;;7.57;;
3465;SDS011;1747;48.884;9.160;2023-06-22T06:28:52;12.43;;;7.45;;
3465;SDS011;1747;48.884;9.160;2023-06-22T06:31:19;13.90;;;8.23;;
3465;SDS011;1747;48.884;9.160;2023-06-22T06:33:46;11.65;;;7.00;;
3465;SDS011;1747;48.884;9.160;2023-06-22T06:36:13;9.43;;;7.13;;
3465;SDS011;1747;48.884;9.160;2023-06-22T06:38:42;8.18;;;6.70;;
3465;SDS011;1747;48.884;9.160;2023-06-22T06:41:08;9.43;;;7.22;;
3465;SDS011;1747;48.884;9.160;2023-06-22T06:43:35;11.70;;;8.02;;
3465;SDS011;1747;48.884;9.160;2023-06-22T06:46:02;12.63;;;6.90;;
3465;SDS011;1747;48.884;9.160;2023-06-22T06:48:29;11.32;;;7.65;;
3465;SDS011;1747;48.884;9.160;2023-06-22T06:50:56;13.98;;;7.68;;
3465;SDS011;1747;48.884;9.160;2023-06-22T06:53:22;11.23;;;7.45;;
3465;SDS011;1747;48.884;9.160;2023-06-22T06:55:51;11.40;;;7.13;;
3465;SDS011;1747;48.884;9.160;2023-06-22T06:58:17;12.88;;;6.82;;
3465;SDS011;1747;48.884;9.160;2023-06-22T07:00:44;10.70;;;7.20;;
3465;SDS011;1747;48.884;9.160;2023-06-22T07:03:11;11.18;;;7.28;;
3465;SDS011;1747;48.884;9.160;2023-06-22T07:05:38;10.55;;;7.20;;
3465;SDS011;1747;48.884;9.160;2023-06-22T07:08:05;9.82;;;7.60;;
3465;SDS011;1747;48.884;9.160;2023-06-22T07:10:31;10.90;;;6.80;;
3465;SDS011;1747;48.884;9.160;2023-06-22T07:13:00;13.50;;;6.43;;
3465;SDS011;1747;48.884;9.160;2023-06-22T07:15:26;11.35;;;6.25;;
3465;SDS011;1747;48.884;9.160;2023-06-22T07:17:53;9.13;;;6.80;;
3465;SDS011;1747;48.884;9.160;2023-06-22T07:20:20;11.20;;;6.45;;
3465;SDS011;1747;48.884;9.160;2023-06-22T07:22:47;11.05;;;5.85;;
3465;SDS011;1747;48.884;9.160;2023-06-22T07:25:13;8.70;;;6.35;;
3465;SDS011;1747;48.884;9.160;2023-06-22T07:27:45;10.52;;;7.10;;
3465;SDS011;1747;48.884;9.160;2023-06-22T07:30:14;10.60;;;6.50;;
3465;SDS011;1747;48.884;9.160;2023-06-22T07:32:41;12.00;;;6.53;;
3465;SDS011;1747;48.884;9.160;2023-06-22T07:35:08;9.30;;;6.38;;
3465;SDS011;1747;48.884;9.160;2023-06-22T07:37:35;15.25;;;7.07;;
3465;SDS011;1747;48.884;9.160;2023-06-22T07:40:02;8.38;;;5.97;;
3465;SDS011;1747;48.884;9.160;2023-06-22T07:42:31;14.82;;;6.70;;
3465;SDS011;1747;48.884;9.160;2023-06-22T07:44:58;7.50;;;6.15;;
3465;SDS011;1747;48.884;9.160;2023-06-22T07:47:27;10.05;;;6.07;;
3465;SDS011;1747;48.884;9.160;2023-06-22T07:49:54;9.50;;;5.40;;
3465;SDS011;1747;48.884;9.160;2023-06-22T07:52:22;6.68;;;5.22;;
3465;SDS011;1747;48.884;9.160;2023-06-22T07:54:49;11.63;;;6.57;;
3465;SDS011;1747;48.884;9.160;2023-06-22T07:57:16;11.55;;;6.43;;
3465;SDS011;1747;48.884;9.160;2023-06-22T07:59:43;7.07;;;5.10;;
3465;SDS011;1747;48.884;9.160;2023-06-22T08:02:10;7.63;;;5.75;;
3465;SDS011;1747;48.884;9.160;2023-06-22T08:04:38;7.43;;;5.78;;
3465;SDS011;1747;48.884;9.160;2023-06-22T08:07:06;11.98;;;6.15;;
3465;SDS011;1747;48.884;9.160;2023-06-22T08:09:33;10.93;;;6.07;;
3465;SDS011;1747;48.884;9.160;2023-06-22T08:12:00;7.28;;;5.63;;
3465;SDS011;1747;48.884;9.160;2023-06-22T08:14:27;9.63;;;5.80;;
3465;SDS011;1747;48.884;9.160;2023-06-22T08:16:55;10.27;;;5.78;;
3465;SDS011;1747;48.884;9.160;2023-06-22T08:19:22;8.15;;;5.80;;
3465;SDS011;1747;48.884;9.160;2023-06-22T08:21:50;7.65;;;5.38;;
3465;SDS011;1747;48.884;9.160;2023-06-22T08:24:17;6.10;;;4.80;;
3465;SDS011;1747;48.884;9.160;2023-06-22T08:26:44;8.07;;;5.90;;
3465;SDS011;1747;48.884;9.160;2023-06-22T08:29:11;9.63;;;6.38;;
3465;SDS011;1747;48.884;9.160;2023-06-22T08:31:38;9.02;;;6.32;;
3465;SDS011;1747;48.884;9.160;2023-06-22T08:34:04;11.05;;;5.70;;
3465;SDS011;1747;48.884;9.160;2023-06-22T08:36:31;11.38;;;5.68;;
3465;SDS011;1747;48.884;9.160;2023-06-22T08:39:07;9.25;;;5.25;;
3465;SDS011;1747;48.884;9.160;2023-06-22T08:41:34;7.30;;;5.38;;
3465;SDS011;1747;48.884;9.160;2023-06-22T08:44:01;12.65;;;5.45;;
3465;SDS011;1747;48.884;9.160;2023-06-22T08:46:29;8.32;;;5.25;;
3465;SDS011;1747;48.884;9.160;2023-06-22T08:48:58;8.25;;;5.90;;
3465;SDS011;1747;48.884;9.160;2023-06-22T08:51:26;6.90;;;5.53;;
3465;SDS011;1747;48.884;9.160;2023-06-22T08:53:53;11.95;;;5.65;;
3465;SDS011;1747;48.884;9.160;2023-06-22T08:56:21;9.77;;;5.60;;
3465;SDS011;1747;48.884;9.160;2023-06-22T09:01:20;8.63;;;5.85;;
3465;SDS011;1747;48.884;9.160;2023-06-22T09:03:48;8.32;;;5.85;;
3465;SDS011;1747;48.884;9.160;2023-06-22T09:06:19;10.90;;;5.75;;
3465;SDS011;1747;48.884;9.160;2023-06-22T09:08:46;9.02;;;6.10;;
3465;SDS011;1747;48.884;9.160;2023-06-22T09:14:10;9.48;;;6.25;;
3465;SDS011;1747;48.884;9.160;2023-06-22T09:16:37;13.15;;;6.13;;
3465;SDS011;1747;48.884;9.160;2023-06-22T09:19:04;7.90;;;5.65;;
3465;SDS011;1747;48.884;9.160;2023-06-22T09:21:31;12.75;;;6.75;;
3465;SDS011;1747;48.884;9.160;2023-06-22T09:23:57;8.38;;;6.15;;
3465;SDS011;1747;48.884;9.160;2023-06-22T09:26:24;9.43;;;5.82;;
3465;SDS011;1747;48.884;9.160;2023-06-22T09:28:53;7.88;;;5.65;;
3465;SDS011;1747;48.884;9.160;2023-06-22T09:31:20;10.45;;;5.70;;
3465;SDS011;1747;48.884;9.160;2023-06-22T09:33:50;11.07;;;6.50;;
3465;SDS011;1747;48.884;9.160;2023-06-22T09:36:18;9.25;;;5.82;;
3465;SDS011;1747;48.884;9.160;2023-06-22T09:38:45;9.98;;;5.97;;
3465;SDS011;1747;48.884;9.160;2023-06-22T09:41:12;8.40;;;5.97;;
3465;SDS011;1747;48.884;9.160;2023-06-22T09:43:38;13.07;;;6.82;;
3465;SDS011;1747;48.884;9.160;2023-06-22T09:46:07;10.02;;;6.13;;
3465;SDS011;1747;48.884;9.160;2023-06-22T09:48:34;8.85;;;6.47;;
3465;SDS011;1747;48.884;9.160;2023-06-22T09:51:01;8.60;;;6.50;;
3465;SDS011;1747;48.884;9.160;2023-06-22T09:53:28;11.75;;;6.03;;
3465;SDS011;1747;48.884;9.160;2023-06-22T09:55:55;10.10;;;6.40;;
3465;SDS011;1747;48.884;9.160;2023-06-22T09:58:23;8.63;;;5.95;;
3465;SDS011;1747;48.884;9.160;2023-06-22T10:00:49;15.68;;;6.15;;
3465;SDS011;1747;48.884;9.160;2023-06-22T10:03:17;9.65;;;6.00;;
3465;SDS011;1747;48.884;9.160;2023-06-22T10:05:44;10.82;;;6.03;;
3465;SDS011;1747;48.884;9.160;2023-06-22T10:08:11;10.93;;;6.10;;
3465;SDS011;1747;48.884;9.160;2023-06-22T10:10:38;7.93;;;5.47;;
3465;SDS011;1747;48.884;9.160;2023-06-22T10:13:07;9.63;;;6.05;;
3465;SDS011;1747;48.884;9.160;2023-06-22T10:15:35;8.98;;;5.55;;
3465;SDS011;1747;48.884;9.160;2023-06-22T10:18:03;9.32;;;5.35;;
3465;SDS011;1747;48.884;9.160;2023-06-22T10:20:31;11.90;;;6.50;;
3465;SDS011;1747;48.884;9.160;2023-06-22T10:22:58;12.68;;;5.95;;
3465;SDS011;1747;48.884;9.160;2023-06-22T10:25:24;11.98;;;6.25;;
3465;SDS011;1747;48.884;9.160;2023-06-22T10:27:52;13.40;;;6.28;;
3465;SDS011;1747;48.884;9.160;2023-06-22T10:30:19;11.63;;;5.72;;
3465;SDS011;1747;48.884;9.160;2023-06-22T10:32:46;11.90;;;5.72;;
3465;SDS011;1747;48.884;9.160;2023-06-22T10:35:13;9.45;;;5.72;;
3465;SDS011;1747;48.884;9.160;2023-06-22T10:37:43;9.77;;;6.05;;
3465;SDS011;1747;48.884;9.160;2023-06-22T10:40:10;10.88;;;5.78;;
3465;SDS011;1747;48.884;9.160;2023-06-22T10:42:38;7.70;;;5.80;;
3465;SDS011;1747;48.884;9.160;2023-06-22T10:45:06;9.57;;;5.93;;
3465;SDS011;1747;48.884;9.160;2023-06-22T10:47:33;12.05;;;5.95;;
3465;SDS011;1747;48.884;9.160;2023-06-22T10:50:00;11.15;;;6.15;;
3465;SDS011;1747;48.884;9.160;2023-06-22T10:52:28;9.68;;;5.97;;
3465;SDS011;1747;48.884;9.160;2023-06-22T10:54:56;14.48;;;6.30;;
3465;SDS011;1747;48.884;9.160;2023-06-22T10:57:23;13.02;;;5.95;;
3465;SDS011;1747;48.884;9.160;2023-06-22T10:59:50;9.52;;;5.50;;
3465;SDS011;1747;48.884;9.160;2023-06-22T11:02:17;13.32;;;5.93;;
3465;SDS011;1747;48.884;9.160;2023-06-22T11:04:44;10.50;;;5.45;;
3465;SDS011;1747;48.884;9.160;2023-06-22T11:07:11;12.75;;;5.47;;
3465;SDS011;1747;48.884;9.160;2023-06-22T11:09:37;9.60;;;6.13;;
3465;SDS011;1747;48.884;9.160;2023-06-22T11:12:06;10.88;;;5.68;;
3465;SDS011;1747;48.884;9.160;2023-06-22T11:14:34;6.43;;;5.32;;
3465;SDS011;1747;48.884;9.160;2023-06-22T11:17:01;11.48;;;5.43;;
3465;SDS011;1747;48.884;9.160;2023-06-22T11:19:28;11.02;;;5.72;;
3465;SDS011;1747;48.884;9.160;2023-06-22T11:21:54;7.78;;;6.05;;
3465;SDS011;1747;48.884;9.160;2023-06-22T11:24:21;10.15;;;5.63;;
3465;SDS011;1747;48.884;9.160;2023-06-22T11:26:50;10.02;;;5.40;;
3465;SDS011;1747;48.884;9.160;2023-06-22T11:29:18;11.18;;;5.57;;
3465;SDS011;1747;48.884;9.160;2023-06-22T11:31:45;10.02;;;5.72;;
3465;SDS011;1747;48.884;9.160;2023-06-22T11:34:12;10.35;;;5.72;;
3465;SDS011;1747;48.884;9.160;2023-06-22T11:36:39;9.82;;;5.75;;
3465;SDS011;1747;48.884;9.160;2023-06-22T11:39:08;10.73;;;5.50;;
3465;SDS011;1747;48.884;9.160;2023-06-22T11:41:36;8.13;;;5.25;;
3465;SDS011;1747;48.884;9.160;2023-06-22T11:44:03;14.23;;;5.38;;
3465;SDS011;1747;48.884;9.160;2023-06-22T11:46:32;8.70;;;5.65;;
3465;SDS011;1747;48.884;9.160;2023-06-22T11:49:00;14.38;;;5.60;;
3465;SDS011;1747;48.884;9.160;2023-06-22T11:51:26;10.40;;;5.65;;
3465;SDS011;1747;48.884;9.160;2023-06-22T11:53:53;14.43;;;5.70;;
3465;SDS011;1747;48.884;9.160;2023-06-22T11:56:20;11.05;;;6.05;;
3465;SDS011;1747;48.884;9.160;2023-06-22T11:58:47;12.93;;;5.57;;
3465;SDS011;1747;48.884;9.160;2023-06-22T12:01:14;11.32;;;5.38;;
3465;SDS011;1747;48.884;9.160;2023-06-22T12:03:42;11.23;;;5.93;;
3465;SDS011;1747;48.884;9.160;2023-06-22T12:06:09;9.23;;;5.68;;
3465;SDS011;1747;48.884;9.160;2023-06-22T12:08:36;13.38;;;6.43;;
3465;SDS011;1747;48.884;9.160;2023-06-22T12:11:03;11.52;;;5.88;;
3465;SDS011;1747;48.884;9.160;2023-06-22T12:13:30;11.35;;;6.13;;
3465;SDS011;1747;48.884;9.160;2023-06-22T12:15:57;13.23;;;6.07;;
3465;SDS011;1747;48.884;9.160;2023-06-22T12:18:23;13.40;;;6.50;;
3465;SDS011;1747;48.884;9.160;2023-06-22T12:20:52;13.98;;;5.63;;
3465;SDS011;1747;48.884;9.160;2023-06-22T12:23:18;9.48;;;5.68;;
3465;SDS011;1747;48.884;9.160;2023-06-22T12:25:45;11.48;;;6.07;;
3465;SDS011;1747;48.884;9.160;2023-06-22T12:28:12;10.45;;;5.47;;
3465;SDS011;1747;48.884;9.160;2023-06-22T12:30:39;11.57;;;5.63;;
3465;SDS011;1747;48.884;9.160;2023-06-22T12:33:06;13.80;;;5.63;;
3465;SDS011;1747;48.884;9.160;2023-06-22T12:35:33;13.82;;;6.15;;
3465;SDS011;1747;48.884;9.160;2023-06-22T12:38:01;13.98;;;5.95;;
3465;SDS011;1747;48.884;9.160;2023-06-22T12:40:31;13.25;;;5.40;;
3465;SDS011;1747;48.884;9.160;2023-06-22T12:42:58;9.57;;;5.85;;
3465;SDS011;1747;48.884;9.160;2023-06-22T12:45:25;9.73;;;6.22;;
3465;SDS011;1747;48.884;9.160;2023-06-22T12:47:53;13.20;;;5.88;;
3465;SDS011;1747;48.884;9.160;2023-06-22T12:50:20;10.65;;;6.32;;
3465;SDS011;1747;48.884;9.160;2023-06-22T12:52:47;12.48;;;6.10;;
3465;SDS011;1747;48.884;9.160;2023-06-22T12:55:15;11.52;;;5.70;;
3465;SDS011;1747;48.884;9.160;2023-06-22T12:57:42;19.08;;;6.03;;
3465;SDS011;1747;48.884;9.160;2023-06-22T13:00:09;10.45;;;6.25;;
3465;SDS011;1747;48.884;9.160;2023-06-22T13:02:37;13.32;;;6.65;;
3465;SDS011;1747;48.884;9.160;2023-06-22T13:05:04;14.15;;;6.22;;
3465;SDS011;1747;48.884;9.160;2023-06-22T13:07:31;12.13;;;6.43;;
3465;SDS011;1747;48.884;9.160;2023-06-22T13:09:58;14.15;;;6.40;;
3465;SDS011;1747;48.884;9.160;2023-06-22T13:12:26;16.10;;;7.00;;
3465;SDS011;1747;48.884;9.160;2023-06-22T13:14:53;18.38;;;7.13;;
3465;SDS011;1747;48.884;9.160;2023-06-22T13:17:20;13.27;;;6.60;;
3465;SDS011;1747;48.884;9.160;2023-06-22T13:19:47;13.25;;;6.68;;
3465;SDS011;1747;48.884;9.160;2023-06-22T13:22:26;13.57;;;6.53;;
3465;SDS011;1747;48.884;9.160;2023-06-22T13:24:55;11.02;;;6.10;;
3465;SDS011;1747;48.884;9.160;2023-06-22T13:27:22;12.13;;;6.63;;
3465;SDS011;1747;48.884;9.160;2023-06-22T13:29:50;12.73;;;7.18;;
3465;SDS011;1747;48.884;9.160;2023-06-22T13:32:17;15.65;;;7.50;;
3465;SDS011;1747;48.884;9.160;2023-06-22T13:34:43;11.85;;;6.88;;
3465;SDS011;1747;48.884;9.160;2023-06-22T13:37:10;17.48;;;6.47;;
3465;SDS011;1747;48.884;9.160;2023-06-22T13:39:37;13.95;;;7.43;;
3465;SDS011;1747;48.884;9.160;2023-06-22T13:42:04;13.32;;;6.57;;
3465;SDS011;1747;48.884;9.160;2023-06-22T13:44:34;10.70;;;6.90;;
3465;SDS011;1747;48.884;9.160;2023-06-22T13:47:02;13.23;;;6.43;;
3465;SDS011;1747;48.884;9.160;2023-06-22T13:49:30;15.85;;;6.68;;
3465;SDS011;1747;48.884;9.160;2023-06-22T13:51:57;16.05;;;6.72;;
3465;SDS011;1747;48.884;9.160;2023-06-22T13:54:24;16.67;;;7.22;;
3465;SDS011;1747;48.884;9.160;2023-06-22T13:56:51;10.20;;;6.68;;
3465;SDS011;1747;48.884;9.160;2023-06-22T13:59:18;11.82;;;6.32;;
3465;SDS011;1747;48.884;9.160;2023-06-22T14:01:46;11.15;;;6.70;;
3465;SDS011;1747;48.884;9.160;2023-06-22T14:04:14;17.73;;;6.97;;
3465;SDS011;1747;48.884;9.160;2023-06-22T14:06:41;15.52;;;7.38;;
3465;SDS011;1747;48.884;9.160;2023-06-22T14:09:08;14.48;;;6.72;;
3465;SDS011;1747;48.884;9.160;2023-06-22T14:11:35;19.00;;;7.28;;
3465;SDS011;1747;48.884;9.160;2023-06-22T14:14:02;12.38;;;7.35;;
3465;SDS011;1747;48.884;9.160;2023-06-22T14:16:29;10.35;;;6.20;;
3465;SDS011;1747;48.884;9.160;2023-06-22T14:18:56;16.67;;;6.13;;
3465;SDS011;1747;48.884;9.160;2023-06-22T14:21:25;11.05;;;6.43;;
3465;SDS011;1747;48.884;9.160;2023-06-22T14:23:52;15.68;;;5.85;;
3465;SDS011;1747;48.884;9.160;2023-06-22T14:26:19;11.35;;;6.05;;
3465;SDS011;1747;48.884;9.160;2023-06-22T14:28:46;16.65;;;6.78;;
3465;SDS011;1747;48.884;9.160;2023-06-22T14:31:15;13.68;;;5.43;;
3465;SDS011;1747;48.884;9.160;2023-06-22T14:33:44;17.67;;;6.78;;
3465;SDS011;1747;48.884;9.160;2023-06-22T14:36:12;10.82;;;6.20;;
3465;SDS011;1747;48.884;9.160;2023-06-22T14:38:40;10.25;;;6.03;;
3465;SDS011;1747;48.884;9.160;2023-06-22T14:41:07;10.27;;;6.82;;
3465;SDS011;1747;48.884;9.160;2023-06-22T14:43:34;10.50;;;6.35;;
3465;SDS011;1747;48.884;9.160;2023-06-22T14:46:01;12.27;;;6.10;;
3465;SDS011;1747;48.884;9.160;2023-06-22T14:48:28;9.93;;;5.72;;
3465;SDS011;1747;48.884;9.160;2023-06-22T14:50:56;9.93;;;5.07;;
3465;SDS011;1747;48.884;9.160;2023-06-22T14:53:25;12.80;;;4.70;;
3465;SDS011;1747;48.884;9.160;2023-06-22T14:55:53;11.15;;;3.90;;
3465;SDS011;1747;48.884;9.160;2023-06-22T14:58:21;13.05;;;3.58;;
3465;SDS011;1747;48.884;9.160;2023-06-22T15:00:48;10.75;;;4.50;;
3465;SDS011;1747;48.884;9.160;2023-06-22T15:03:15;11.98;;;3.95;;
3465;SDS011;1747;48.884;9.160;2023-06-22T15:05:46;11.70;;;3.47;;
3465;SDS011;1747;48.884;9.160;2023-06-22T15:08:14;12.93;;;3.45;;
3465;SDS011;1747;48.884;9.160;2023-06-22T15:10:41;8.93;;;3.55;;
3465;SDS011;1747;48.884;9.160;2023-06-22T15:13:09;14.18;;;3.53;;